Time;durP1;ratioP1;P1;durP2;ratioP2;P2;SDS_P1;SDS_P2;PMS_P1;PMS_P2;Temp;Humidity;BMP_temperature;BMP_pressure;BME280_temperature;BME280_humidity;BME280_pressure;Samples;Min_cycle;Max_cycle;Signal;HPM_P1;HPM_P2
2022/11/03 00:01:44;;;;;;;;;5.33;5.00;;;;;14.97;63.62;101223.47;6216499;22;45200;-78
2022/11/03 00:04:12;;;;;;;;;3.25;3.25;;;;;14.78;63.70;101185.72;6216974;22;45403;-79
2022/11/03 00:06:39;;;;;;;;;4.00;4.00;;;;;14.74;63.68;101173.41;6215258;22;45433;-79
2022/11/03 00:09:07;;;;;;;;;3.00;3.00;;;;;14.76;63.53;101170.75;6217199;22;45405;-78
2022/11/03 00:11:34;;;;;;;;;4.67;4.67;;;;;14.92;63.59;101203.22;6188403;22;45486;-79
2022/11/03 00:14:00;;;;;;;;;4.00;4.00;;;;;14.85;63.78;101180.31;6217016;22;45173;-78
2022/11/03 00:16:26;;;;;;;;;4.00;4.00;;;;;14.70;63.76;101144.31;6189086;22;45512;-79
2022/11/03 00:18:52;;;;;;;;;3.33;3.33;;;;;14.87;63.86;101179.41;6217151;22;45357;-78
2022/11/03 00:21:17;;;;;;;;;4.00;3.00;;;;;14.96;64.13;101203.13;6189945;22;45314;-79
2022/11/03 00:23:43;;;;;;;;;5.33;3.67;;;;;14.74;63.90;101168.09;6189915;22;47136;-79
2022/11/03 00:26:12;;;;;;;;;3.75;3.75;;;;;14.82;64.13;101172.44;6214957;22;45299;-79
2022/11/03 00:28:40;;;;;;;;;4.50;4.50;;;;;14.91;64.40;101189.06;6214814;22;45214;-79
2022/11/03 00:31:13;;;;;;;;;3.67;3.67;;;;;14.67;63.85;101142.56;6214655;22;45347;-79
2022/11/03 00:33:39;;;;;;;;;4.00;4.00;;;;;14.73;64.25;101158.41;6189518;22;45394;-80
2022/11/03 00:36:06;;;;;;;;;4.00;3.00;;;;;14.68;64.42;101147.00;6214709;22;45122;-79
2022/11/03 00:38:32;;;;;;;;;6.00;5.25;;;;;14.68;64.59;101147.00;6217279;22;45356;-79
2022/11/03 00:41:00;;;;;;;;;4.00;4.00;;;;;14.80;64.51;101163.63;6189695;22;45383;-79
2022/11/03 00:43:28;;;;;;;;;5.00;5.00;;;;;14.62;64.69;101133.84;6215386;22;47107;-79
2022/11/03 00:45:54;;;;;;;;;6.75;5.50;;;;;14.74;64.65;101146.03;6214386;22;45229;-79
2022/11/03 00:48:29;;;;;;;;;6.00;4.00;;;;;14.78;64.76;101148.63;6190848;22;45288;-79
2022/11/03 00:51:17;;;;;;;;;4.00;4.00;;;;;14.85;65.07;101162.63;6190028;22;45809;-78
2022/11/03 00:53:44;;;;;;;;;6.50;5.00;;;;;14.90;64.72;101166.09;6189502;22;48242;-79
2022/11/03 00:56:15;;;;;;;;;5.50;4.00;;;;;14.81;64.57;101131.78;6189126;22;45500;-79
2022/11/03 00:58:42;;;;;;;;;6.00;4.25;;;;;14.84;64.59;101130.88;6214476;22;45339;-79
2022/11/03 01:01:13;;;;;;;;;8.00;5.00;;;;;14.81;64.95;101131.78;6216712;22;45418;-79
2022/11/03 01:03:40;;;;;;;;;6.00;5.25;;;;;14.56;64.68;101088.84;6214339;22;48117;-79
2022/11/03 01:08:53;;;;;;;;;5.67;4.33;;;;;14.60;64.84;101103.81;6216678;22;45362;-79
2022/11/03 01:14:06;;;;;;;;;4.75;4.75;;;;;14.47;65.02;101099.56;6216782;22;45379;-79
2022/11/03 01:16:32;;;;;;;;;6.50;3.75;;;;;14.60;65.04;101119.72;6189533;22;45280;-79
2022/11/03 01:18:57;;;;;;;;;5.00;4.75;;;;;14.56;65.29;101116.22;6216516;22;45225;-78
2022/11/03 01:21:23;;;;;;;;;5.00;5.00;;;;;14.55;65.24;101103.03;6216609;22;45418;-79
2022/11/03 01:23:49;;;;;;;;;7.33;4.00;;;;;14.58;65.33;101099.44;6216070;22;45182;-78
2022/11/03 01:26:14;;;;;;;;;7.00;7.00;;;;;14.62;65.35;101098.50;6213777;22;45175;-79
2022/11/03 01:28:42;;;;;;;;;7.75;5.50;;;;;14.61;65.30;101083.50;6190281;22;45114;-79
2022/11/03 01:31:16;;;;;;;;;5.00;3.67;;;;;14.61;65.68;101084.38;6214311;22;45388;-79
2022/11/03 01:33:42;;;;;;;;;3.00;3.00;;;;;14.52;65.13;101058.91;6189051;22;47099;-79
2022/11/03 01:36:08;;;;;;;;;3.67;3.67;;;;;14.46;65.58;101044.81;6189355;22;45268;-79
2022/11/03 01:38:35;;;;;;;;;4.00;3.00;;;;;14.54;65.50;101056.22;6216560;22;45486;-79
2022/11/03 01:41:02;;;;;;;;;3.67;3.67;;;;;14.63;65.14;101060.50;6190155;22;45225;-79
2022/11/03 01:43:30;;;;;;;;;6.33;6.33;;;;;14.53;65.41;101049.16;6190771;22;47157;-79
2022/11/03 01:46:18;;;;;;;;;7.67;4.33;;;;;14.66;65.61;101065.75;6217554;22;45127;-79
2022/11/03 01:48:50;;;;;;;;;7.25;4.00;;;;;14.50;65.43;101035.94;6216086;22;45409;-78
2022/11/03 01:51:21;;;;;;;;;6.50;4.75;;;;;14.45;65.60;101030.69;6217823;22;45426;-79
2022/11/03 01:53:49;;;;;;;;;2.00;2.00;;;;;14.35;65.83;101013.19;6217448;22;46219;-78
2022/11/03 01:56:16;;;;;;;;;5.00;4.00;;;;;14.47;65.68;101026.25;6215576;22;45283;-79
2022/11/03 01:58:45;;;;;;;;;5.00;4.75;;;;;14.59;65.59;101042.91;6217640;22;45375;-79
2022/11/03 02:01:11;;;;;;;;;6.75;6.25;;;;;14.62;65.56;101042.84;6218038;22;45172;-78
2022/11/03 02:03:46;;;;;;;;;5.50;4.00;;;;;14.40;65.67;101006.06;6216751;22;45913;-79
2022/11/03 02:06:12;;;;;;;;;4.25;4.25;;;;;14.54;65.68;101022.66;6217962;22;45332;-79
2022/11/03 02:08:48;;;;;;;;;5.00;5.00;;;;;14.52;65.78;101026.19;6217806;22;45233;-79
2022/11/03 02:13:57;;;;;;;;;5.00;4.00;;;;;14.41;65.84;101001.66;6217400;22;45161;-78
2022/11/03 02:16:25;;;;;;;;;7.75;4.75;;;;;14.36;65.99;100982.31;6215490;22;45201;-79
2022/11/03 02:18:52;;;;;;;;;5.75;4.00;;;;;14.51;66.03;101000.59;6217641;22;45229;-79
2022/11/03 02:21:39;;;;;;;;;5.00;4.00;;;;;14.52;65.75;101005.91;6217246;22;45408;-79
2022/11/03 02:24:20;;;;;;;;;10.75;4.25;;;;;14.56;65.94;101007.59;6190180;22;47170;-79
2022/11/03 02:26:47;;;;;;;;;4.75;3.50;;;;;14.31;65.64;100962.06;6217466;22;45194;-79
2022/11/03 02:29:13;;;;;;;;;6.75;5.00;;;;;14.47;65.70;100980.34;6215740;22;45371;-79
2022/11/03 02:31:49;;;;;;;;;5.50;3.50;;;;;14.48;65.67;100968.84;6215735;22;45334;-79
2022/11/03 02:34:32;;;;;;;;;5.33;4.00;;;;;14.52;65.94;100973.22;6215541;22;47804;-79
2022/11/03 02:37:03;;;;;;;;;4.50;3.75;;;;;14.61;65.90;100977.50;6190295;22;45295;-79
2022/11/03 02:39:46;;;;;;;;;5.25;4.25;;;;;14.60;65.94;100974.00;6190100;22;45223;-79
2022/11/03 02:42:14;;;;;;;;;3.75;1.75;;;;;14.37;66.27;100924.00;6190097;22;45173;-79
2022/11/03 02:44:42;;;;;;;;;8.00;4.25;;;;;14.61;65.95;100975.72;6217328;22;46094;-79
2022/11/03 02:47:11;;;;;;;;;5.33;4.67;;;;;14.33;65.77;100927.59;6190599;22;45343;-79
2022/11/03 02:49:46;;;;;;;;;4.75;4.00;;;;;14.49;66.10;100952.94;6190650;22;45181;-79
2022/11/03 02:52:39;;;;;;;;;5.50;5.50;;;;;14.58;65.63;100957.25;6189700;22;45455;-79
2022/11/03 02:55:21;;;;;;;;;8.00;6.00;;;;;14.47;65.79;100930.91;6217337;22;46214;-79
2022/11/03 02:58:13;;;;;;;;;8.25;6.25;;;;;14.59;65.87;100939.56;6217235;22;45222;-79
2022/11/03 03:00:47;;;;;;;;;7.25;4.75;;;;;14.56;65.98;100929.88;6159807;22;45540;-79
2022/11/03 03:03:36;;;;;;;;;4.50;4.00;;;;;14.52;65.76;100923.78;6215159;22;45395;-79
2022/11/03 03:06:08;;;;;;;;;4.00;4.00;;;;;14.40;65.91;100902.75;6217284;22;47240;-79
2022/11/03 03:08:39;;;;;;;;;3.25;3.25;;;;;14.41;65.98;100890.41;6217466;22;45111;-79
2022/11/03 03:11:05;;;;;;;;;7.50;4.25;;;;;14.33;66.08;100859.63;6217654;22;45197;-79
2022/11/03 03:13:31;;;;;;;;;4.50;3.00;;;;;14.53;65.66;100892.84;6190159;22;45127;-79
2022/11/03 03:16:24;;;;;;;;;4.00;4.00;;;;;14.50;65.79;100869.91;6215528;22;48027;-78
2022/11/03 03:18:59;;;;;;;;;5.50;5.00;;;;;14.48;65.74;100869.06;6214934;22;45348;-79
2022/11/03 03:21:32;;;;;;;;;4.00;3.75;;;;;14.47;65.82;100877.03;6217454;22;45316;-79
2022/11/03 03:24:03;;;;;;;;;5.00;4.50;;;;;14.33;65.78;100853.44;6214816;22;45292;-79
2022/11/03 03:26:34;;;;;;;;;6.00;5.50;;;;;14.32;65.66;100854.34;6214953;22;47092;-79
2022/11/03 03:29:06;;;;;;;;;5.75;3.25;;;;;14.28;65.91;100842.06;6215079;22;45398;-79
2022/11/03 03:31:35;;;;;;;;;4.25;4.25;;;;;14.40;66.15;100854.19;6217597;22;45374;-79
2022/11/03 03:34:05;;;;;;;;;4.00;4.00;;;;;14.25;65.82;100826.22;6189931;22;45429;-79
2022/11/03 03:36:34;;;;;;;;;5.00;5.00;;;;;14.19;65.76;100815.72;6190218;22;47038;-79
2022/11/03 03:39:03;;;;;;;;;5.00;5.00;;;;;14.33;66.13;100833.13;6217206;22;45415;-80
2022/11/03 03:41:31;;;;;;;;;4.75;4.25;;;;;14.09;66.20;100788.56;6215856;22;45142;-79
2022/11/03 03:44:04;;;;;;;;;4.00;4.00;;;;;14.31;65.83;100842.00;6215727;22;45913;-79
2022/11/03 03:46:43;;;;;;;;;3.75;3.75;;;;;14.19;66.28;100823.66;6189675;22;47371;-79
2022/11/03 03:49:09;;;;;;;;;7.50;4.50;;;;;14.31;65.91;100839.34;6189578;22;45342;-79
2022/11/03 03:51:36;;;;;;;;;6.50;5.25;;;;;14.07;65.94;100804.44;6191409;22;45319;-79
2022/11/03 03:54:02;;;;;;;;;3.50;3.50;;;;;14.20;66.44;100820.13;6190518;22;45273;-80
2022/11/03 03:56:39;;;;;;;;;5.00;4.75;;;;;14.14;66.47;100815.81;6189594;22;47445;-79
2022/11/03 03:59:04;;;;;;;;;5.50;4.25;;;;;14.10;66.31;100809.69;6214917;22;45212;-78
2022/11/03 04:01:29;;;;;;;;;5.25;4.25;;;;;14.02;65.90;100806.31;6189775;22;45224;-79
2022/11/03 04:03:55;;;;;;;;;6.00;5.00;;;;;14.18;66.12;100830.75;6216525;22;45160;-79
2022/11/03 04:06:21;;;;;;;;;4.33;3.33;;;;;14.13;66.06;100819.34;6215444;22;46499;-79
2022/11/03 04:08:46;;;;;;;;;3.00;3.00;;;;;14.19;65.93;100816.59;6217092;22;45240;-78
2022/11/03 04:22:17;;;;;;;;;3.67;3.67;;;;;13.94;66.32;100779.09;6216913;22;45181;-79
2022/11/03 04:24:50;;;;;;;;;4.67;3.00;;;;;14.02;66.12;100779.84;6189929;22;45258;-79
2022/11/03 04:27:31;;;;;;;;;8.00;6.75;;;;;14.12;65.80;100789.38;6214451;22;46901;-79
2022/11/03 04:30:05;;;;;;;;;5.00;5.00;;;;;14.07;65.99;100783.28;6214945;22;45356;-79
2022/11/03 04:32:30;;;;;;;;;4.75;3.50;;;;;13.90;66.18;100746.53;6215199;22;45387;-79
2022/11/03 04:34:57;;;;;;;;;2.50;1.50;;;;;13.92;66.33;100750.91;6214661;22;45343;-79
2022/11/03 04:37:27;;;;;;;;;6.00;4.00;;;;;13.89;66.39;100728.00;6217020;22;45563;-78
2022/11/03 04:39:58;;;;;;;;;8.75;5.25;;;;;13.97;66.35;100743.75;6214646;22;46015;-79
2022/11/03 04:42:23;;;;;;;;;3.00;3.00;;;;;14.02;66.16;100749.84;6214462;22;45396;-79
2022/11/03 04:44:49;;;;;;;;;5.67;3.67;;;;;14.11;66.53;100769.09;6216909;22;45357;-79
2022/11/03 04:47:17;;;;;;;;;5.50;5.00;;;;;13.98;66.37;100735.81;6214856;22;47154;-79
2022/11/03 04:49:47;;;;;;;;;5.25;4.25;;;;;14.03;65.84;100738.34;6216561;22;45114;-79
2022/11/03 04:52:18;;;;;;;;;4.50;4.50;;;;;14.03;66.16;100730.41;6214828;22;45439;-79
2022/11/03 04:54:48;;;;;;;;;7.25;6.25;;;;;14.02;66.19;100723.38;6214873;22;45720;-79
2022/11/03 04:57:15;;;;;;;;;2.00;0.00;;;;;13.97;66.10;100715.50;6214457;22;48186;-78
2022/11/03 04:59:42;;;;;;;;;3.00;3.00;;;;;13.94;66.15;100704.97;6189574;22;46207;-79
2022/11/03 05:02:14;;;;;;;;;5.50;4.25;;;;;14.12;65.82;100739.06;6192655;22;45285;-78
2022/11/03 05:04:41;;;;;;;;;5.25;4.00;;;;;14.12;66.30;100735.53;6214593;22;45357;-78
2022/11/03 05:07:31;;;;;;;;;3.00;3.00;;;;;14.03;66.23;100709.22;6214379;22;47326;-78
2022/11/03 05:09:58;;;;;;;;;9.50;7.75;;;;;14.00;66.14;100704.84;6214258;22;45345;-79
2022/11/03 05:12:24;;;;;;;;;6.25;6.00;;;;;14.04;66.26;100708.34;6214304;22;45372;-79
2022/11/03 05:14:50;;;;;;;;;5.25;3.75;;;;;14.00;65.94;100704.84;6217207;22;45303;-78
2022/11/03 05:17:24;;;;;;;;;5.00;4.00;;;;;14.01;66.17;100703.97;6215796;22;48189;-79
2022/11/03 05:20:00;;;;;;;;;7.00;4.00;;;;;13.94;66.09;100670.56;6215577;22;45462;-78
2022/11/03 05:22:31;;;;;;;;;6.00;5.00;;;;;14.08;66.12;100694.13;6218337;22;45342;-79
2022/11/03 05:25:02;;;;;;;;;7.00;4.25;;;;;13.80;65.80;100636.44;6217799;22;45287;-78
2022/11/03 05:27:27;;;;;;;;;4.33;3.33;;;;;13.86;65.75;100646.03;6215432;22;47631;-78
2022/11/03 05:29:57;;;;;;;;;7.25;5.50;;;;;14.02;65.50;100657.19;6217965;22;45083;-78
2022/11/03 05:32:29;;;;;;;;;6.33;6.33;;;;;13.90;65.78;100634.50;6216290;22;45320;-79
2022/11/03 05:34:56;;;;;;;;;3.67;3.00;;;;;13.75;65.79;100611.84;6215524;22;45216;-78
2022/11/03 05:37:23;;;;;;;;;5.50;5.50;;;;;13.81;65.89;100618.78;6217496;22;45492;-79
2022/11/03 05:39:49;;;;;;;;;5.00;3.25;;;;;13.92;65.94;100635.31;6215267;22;45251;-79
2022/11/03 05:42:21;;;;;;;;;9.00;5.00;;;;;13.83;65.51;100622.28;6215631;22;45457;-78
2022/11/03 05:44:47;;;;;;;;;4.75;3.75;;;;;13.84;65.63;100616.94;6217956;22;45421;-79
2022/11/03 05:47:24;;;;;;;;;4.67;4.67;;;;;13.82;65.50;100600.25;6217472;22;45359;-78
2022/11/03 05:49:55;;;;;;;;;6.00;4.33;;;;;13.66;66.04;100565.28;6217517;22;45364;-78
2022/11/03 05:52:26;;;;;;;;;6.75;5.00;;;;;13.58;66.23;100550.41;6215529;22;45337;-79
2022/11/03 05:54:55;;;;;;;;;5.25;4.75;;;;;13.80;65.91;100590.59;6215448;22;45212;-78
2022/11/03 05:57:20;;;;;;;;;5.50;4.50;;;;;13.53;65.75;100561.13;6217232;22;46166;-79
2022/11/03 05:59:50;;;;;;;;;6.00;6.00;;;;;13.82;66.10;100605.53;6217336;22;45232;-78
2022/11/03 06:02:39;;;;;;;;;5.25;4.75;;;;;13.57;66.05;100560.13;6215259;22;45420;-78
2022/11/03 06:05:25;;;;;;;;;6.50;6.25;;;;;13.53;65.91;100555.81;6217527;22;45111;-78
2022/11/03 06:07:54;;;;;;;;;6.00;4.75;;;;;13.67;66.40;100576.72;6215372;22;46704;-78
2022/11/03 06:10:34;;;;;;;;;7.00;6.00;;;;;13.61;65.83;100553.91;6215226;22;45279;-79
2022/11/03 06:13:12;;;;;;;;;3.00;3.00;;;;;13.62;66.02;100563.56;6217872;22;45204;-78
2022/11/03 06:15:40;;;;;;;;;5.75;5.00;;;;;13.75;66.23;100569.50;6215479;22;45323;-79
2022/11/03 06:18:34;;;;;;;;;5.00;5.00;;;;;13.61;66.40;100545.09;6215159;22;47306;-78
2022/11/03 06:21:12;;;;;;;;;5.25;5.25;;;;;13.73;66.03;100563.34;6212704;22;45381;-78
2022/11/03 06:23:39;;;;;;;;;8.00;6.75;;;;;13.65;66.13;100552.06;6215414;22;45233;-79
2022/11/03 06:26:17;;;;;;;;;8.00;6.00;;;;;13.68;65.88;100544.06;6216897;22;45181;-79
2022/11/03 06:28:44;;;;;;;;;6.50;5.75;;;;;13.62;66.06;100520.38;6215284;22;47159;-78
2022/11/03 06:31:23;;;;;;;;;7.00;6.00;;;;;13.65;66.18;100517.66;6215267;22;45308;-79
2022/11/03 06:33:50;;;;;;;;;7.75;5.00;;;;;13.52;66.06;100500.28;6217460;22;45259;-79
2022/11/03 06:36:19;;;;;;;;;5.00;5.00;;;;;13.51;66.08;100491.50;6215157;22;45142;-78
2022/11/03 06:38:53;;;;;;;;;7.75;4.25;;;;;13.75;66.31;100528.94;6215145;22;47211;-79
2022/11/03 06:41:26;;;;;;;;;7.25;6.25;;;;;13.57;66.32;100509.88;6217253;22;45390;-79
2022/11/03 06:43:52;;;;;;;;;5.50;5.50;;;;;13.72;66.00;100529.88;6215341;22;45419;-78
2022/11/03 06:46:17;;;;;;;;;5.50;4.00;;;;;13.64;66.07;100502.72;6217266;22;45431;-78
2022/11/03 06:48:43;;;;;;;;;5.50;5.50;;;;;13.72;66.12;100526.38;6217623;22;45476;-78
2022/11/03 06:51:18;;;;;;;;;8.50;5.00;;;;;13.56;66.67;100499.34;6215465;22;45306;-79
2022/11/03 06:53:44;;;;;;;;;4.25;4.25;;;;;13.72;66.37;100526.38;6215128;22;45394;-78
2022/11/03 06:56:35;;;;;;;;;6.50;5.00;;;;;13.73;66.43;100514.88;6216375;22;46200;-82
2022/11/03 06:59:08;;;;;;;;;6.00;6.00;;;;;13.74;66.56;100517.50;6217454;22;46420;-80
2022/11/03 07:01:39;;;;;;;;;5.75;5.00;;;;;13.64;66.06;100486.84;6217116;22;45171;-79
2022/11/03 07:04:27;;;;;;;;;5.50;5.50;;;;;13.75;66.26;100492.78;6217736;22;45400;-81
2022/11/03 07:07:08;;;;;;;;;;;;;;;;;;;;;
2022/11/03 07:19:52;;;;;;;;;6.00;5.25;;;;;13.61;66.07;100441.94;6190106;22;45461;-79
2022/11/03 07:25:58;;;;;;;;;6.25;6.25;;;;;13.44;66.01;100392.03;6216259;22;45163;-79
2022/11/03 07:28:38;;;;;;;;;5.50;5.50;;;;;13.63;66.17;100418.94;6211176;22;45350;-84
2022/11/03 07:31:20;;;;;;;;;7.00;7.00;;;;;13.79;66.23;100443.28;6215330;22;45375;-78
2022/11/03 07:34:12;;;;;;;;;3.50;3.50;;;;;13.81;66.07;100445.00;6190633;22;46964;-79
2022/11/03 07:36:42;;;;;;;;;7.00;5.25;;;;;13.74;66.03;100422.25;6207963;22;45363;-79
2022/11/03 07:39:16;;;;;;;;;5.75;5.25;;;;;13.60;65.59;100404.00;6189562;22;45221;-78
2022/11/03 07:41:42;;;;;;;;;3.75;2.75;;;;;13.57;65.91;100385.56;6215073;22;45604;-79
2022/11/03 07:44:19;;;;;;;;;5.75;5.75;;;;;13.76;65.75;100407.19;6216834;22;46032;-79
2022/11/03 07:46:49;;;;;;;;;5.00;5.00;;;;;13.79;65.63;100406.25;6215188;22;45139;-78
2022/11/03 07:49:25;;;;;;;;;5.50;5.50;;;;;13.82;65.20;100414.13;6189795;22;45397;-79
2022/11/03 07:51:51;;;;;;;;;7.50;5.75;;;;;13.99;65.09;100437.56;6215069;22;45240;-79
2022/11/03 07:54:22;;;;;;;;;5.25;5.00;;;;;13.97;65.17;100415.56;6189790;22;46594;-79
2022/11/03 08:00:21;;;;;;;;;6.00;6.00;;;;;14.03;64.96;100416.31;6216957;22;45177;-79
2022/11/03 08:03:08;;;;;;;;;;;;;;;;;;;;;
2022/11/03 08:05:36;;;;;;;;;8.50;7.00;;;;;13.85;64.49;100371.75;6215291;22;75687;-80
2022/11/03 08:08:14;;;;;;;;;;;;;;;;;;;;;
2022/11/03 08:10:39;;;;;;;;;6.25;4.00;;;;;14.08;64.25;100382.63;6215129;22;68313;-79
2022/11/03 08:13:05;;;;;;;;;5.75;4.50;;;;;14.24;64.23;100406.09;6214878;22;45119;-79
2022/11/03 08:15:42;;;;;;;;;7.25;5.00;;;;;14.24;64.05;100393.72;6216635;22;45177;-80
2022/11/03 08:18:10;;;;;;;;;7.25;3.75;;;;;14.39;64.15;100405.72;6240146;22;45940;-80
2022/11/03 08:20:36;;;;;;;;;5.00;5.00;;;;;14.46;63.96;100396.72;6215232;22;45398;-80
2022/11/03 08:23:01;;;;;;;;;4.25;3.25;;;;;14.23;63.47;100344.34;6214446;22;45245;-79
2022/11/03 08:25:26;;;;;;;;;7.50;5.75;;;;;14.50;63.40;100381.63;6216365;22;45615;-79
2022/11/03 08:27:52;;;;;;;;;6.75;5.25;;;;;14.37;63.38;100351.06;6214566;22;45203;-79
2022/11/03 08:30:17;;;;;;;;;5.25;4.00;;;;;14.26;63.04;100324.84;6215296;22;45816;-78
2022/11/03 08:33:04;;;;;;;;;5.25;5.00;;;;;14.61;63.08;100379.59;6214553;22;45497;-81
2022/11/03 08:35:49;;;;;;;;;;;;;;;;;;;;;
2022/11/03 08:38:21;;;;;;;;;5.00;5.00;;;;;14.62;62.77;100360.16;6213864;22;72349;-81
2022/11/03 08:41:39;;;;;;;;;5.00;4.25;;;;;14.37;62.72;100311.34;6216590;22;45163;-80
2022/11/03 08:45:03;;;;;;;;;;;;;;;;;;;;;
2022/11/03 09:27:47;;;;;;;;;4.75;3.50;;;;;14.54;61.80;100197.88;5075742;28;45333;-80
2022/11/03 09:30:14;;;;;;;;;13.00;11.75;;;;;14.94;61.36;100257.66;5055781;28;45304;-82
2022/11/03 09:32:50;;;;;;;;;;;;;;;;;;;;;
2022/11/03 09:35:20;;;;;;;;;4.00;4.00;;;;;15.06;61.28;100238.75;5055045;28;72618;-79
2022/11/03 09:37:55;;;;;;;;;5.33;4.67;;;;;14.96;61.27;100219.59;5054098;28;47690;-81
2022/11/03 09:40:37;;;;;;;;;5.00;5.00;;;;;14.97;61.16;100199.28;5054114;28;45406;-83
2022/11/03 09:43:12;;;;;;;;;7.00;5.00;;;;;14.98;60.55;100188.59;5054300;28;45402;-81
2022/11/03 09:45:38;;;;;;;;;6.00;4.00;;;;;15.18;60.60;100211.88;5055650;28;45429;-79
2022/11/03 09:48:04;;;;;;;;;4.25;4.25;;;;;15.05;60.89;100180.44;5070583;28;46188;-79
2022/11/03 09:50:31;;;;;;;;;4.00;4.00;;;;;15.27;60.15;100201.88;5053646;28;45298;-81
2022/11/03 09:52:56;;;;;;;;;2.50;2.50;;;;;15.36;60.19;100206.88;5055273;28;45378;-80
2022/11/03 09:58:43;;;;;;;;;4.67;2.33;;;;;15.58;59.78;100199.06;5049828;28;45655;-79
2022/11/03 10:01:10;;;;;;;;;3.00;3.00;;;;;15.67;59.43;100188.16;5054115;28;45445;-81
2022/11/03 10:03:39;;;;;;;;;3.00;3.00;;;;;15.84;59.26;100188.47;5054850;28;45283;-79
2022/11/03 10:06:12;;;;;;;;;6.25;4.50;;;;;15.91;59.06;100172.38;5055029;28;45496;-82
2022/11/03 10:08:44;;;;;;;;;4.75;4.00;;;;;16.15;58.47;100198.06;5069900;28;47836;-79
2022/11/03 10:23:04;;;;;;;;;4.67;4.33;;;;;16.34;57.47;100131.84;5800747;22;46177;-80
2022/11/03 10:25:40;;;;;;;;;6.50;6.00;;;;;16.60;57.19;100160.09;4975366;28;45438;-78
2022/11/03 10:28:23;;;;;;;;;5.00;4.00;;;;;16.78;56.96;100158.53;4981872;28;45255;-78
2022/11/03 10:30:58;;;;;;;;;4.50;3.75;;;;;16.94;56.49;100169.44;4964156;28;46196;-78
2022/11/03 10:34:07;;;;;;;;;4.33;4.00;;;;;16.85;56.01;100137.91;4960239;28;45445;-80
2022/11/03 10:37:20;;;;;;;;;;;;;;;;;;;;;
2022/11/03 10:39:49;;;;;;;;;6.33;5.33;;;;;16.98;55.91;100140.00;4980311;28;72779;-78
2022/11/03 10:42:23;;;;;;;;;3.00;3.00;;;;;16.99;55.32;100132.91;4981353;28;46338;-79
2022/11/03 10:44:54;;;;;;;;;2.67;2.33;;;;;17.09;54.87;100155.53;4981562;28;45259;-76
2022/11/03 10:47:32;;;;;;;;;4.33;3.67;;;;;16.93;55.13;100127.84;4981536;28;45420;-76
2022/11/03 10:49:59;;;;;;;;;2.33;2.00;;;;;16.97;54.85;100132.09;4981543;28;45361;-78
2022/11/03 10:52:28;;;;;;;;;4.50;3.75;;;;;16.96;55.03;100133.03;4981140;28;45415;-78
2022/11/03 10:54:57;;;;;;;;;3.75;3.75;;;;;16.90;55.06;100126.16;4963570;28;45476;-79
2022/11/03 10:58:22;;;;;;;;;;;;;;;;;;;;;
2022/11/03 11:01:26;;;;;;;;;4.00;3.00;;;;;16.90;55.19;100126.16;4915740;28;45561;-81
2022/11/03 11:03:52;;;;;;;;;2.00;2.00;;;;;16.82;55.17;100104.34;4909830;28;48030;-79
2022/11/03 11:06:24;;;;;;;;;3.00;3.00;;;;;16.90;55.32;100123.50;4967414;28;45507;-79
2022/11/03 11:08:59;;;;;;;;;5.67;4.00;;;;;16.84;54.96;100107.81;4976602;28;45374;-79
2022/11/03 11:11:27;;;;;;;;;2.67;2.33;;;;;16.92;55.14;100113.69;4973796;28;45437;-79
2022/11/03 11:14:27;;;;;;;;;5.00;5.00;;;;;16.93;55.02;100106.56;4979268;28;47164;-77
2022/11/03 11:16:57;;;;;;;;;2.33;2.33;;;;;16.88;54.90;100108.53;4963201;28;45455;-77
2022/11/03 11:19:24;;;;;;;;;5.00;4.00;;;;;16.72;55.04;100071.88;4973028;28;45367;-79
2022/11/03 11:21:58;;;;;;;;;4.00;4.00;;;;;16.71;55.37;100075.47;4980863;28;45551;-77
2022/11/03 11:24:42;;;;;;;;;3.00;3.00;;;;;16.73;55.54;100078.06;4980646;28;45440;-78
2022/11/03 11:27:32;;;;;;;;;2.00;2.00;;;;;16.66;55.92;100080.13;4962819;28;45405;-79
2022/11/03 11:30:25;;;;;;;;;2.67;2.67;;;;;16.42;56.39;100073.09;4980833;28;45465;-79
2022/11/03 11:32:59;;;;;;;;;5.75;2.50;;;;;16.27;56.42;100088.69;4980100;28;45222;-79
2022/11/03 11:35:25;;;;;;;;;3.00;3.00;;;;;16.36;56.74;100113.16;4962263;28;47925;-79
2022/11/03 11:37:53;;;;;;;;;4.67;4.33;;;;;16.11;57.47;100060.97;4979187;28;45162;-79
2022/11/03 11:40:24;;;;;;;;;6.00;4.00;;;;;16.25;57.75;100098.53;4963126;28;45319;-77
2022/11/03 11:43:19;;;;;;;;;2.00;2.00;;;;;16.10;58.24;100065.44;4980566;28;45416;-79
2022/11/03 11:46:21;;;;;;;;;4.25;4.00;;;;;16.15;58.78;100083.84;4959056;28;47721;-78
2022/11/03 11:49:14;;;;;;;;;7.50;5.00;;;;;16.05;59.08;100066.53;4973932;28;45455;-80
2022/11/03 11:51:39;;;;;;;;;6.67;6.67;;;;;15.83;59.39;100030.16;4980967;28;45404;-79
2022/11/03 11:54:07;;;;;;;;;5.00;5.00;;;;;16.00;59.77;100066.69;4980324;28;45580;-79
2022/11/03 11:56:39;;;;;;;;;4.00;4.00;;;;;15.89;59.94;100031.72;4963001;28;47573;-79
2022/11/03 11:59:13;;;;;;;;;6.50;6.50;;;;;15.88;60.19;100030.84;4980242;28;45477;-79
2022/11/03 12:01:40;;;;;;;;;6.50;5.00;;;;;15.90;60.27;100024.59;4995420;28;45487;-79
2022/11/03 12:07:12;;;;;;;;;7.00;5.75;;;;;16.05;60.49;100034.66;4926776;28;46329;-79
2022/11/03 12:09:39;;;;;;;;;4.00;4.00;;;;;15.88;60.52;100003.44;4980164;28;45405;-79
2022/11/03 12:12:05;;;;;;;;;6.75;6.00;;;;;16.08;60.83;100042.50;4980159;28;45291;-79
2022/11/03 12:14:36;;;;;;;;;9.25;7.00;;;;;16.06;60.43;100036.38;4980220;28;45255;-79
2022/11/03 12:17:17;;;;;;;;;4.00;4.00;;;;;16.05;60.76;100024.91;4962332;28;46386;-79
2022/11/03 12:19:45;;;;;;;;;3.67;3.67;;;;;16.03;61.09;100012.59;4962754;28;45397;-79
2022/11/03 12:22:32;;;;;;;;;4.00;4.00;;;;;15.85;61.16;100006.19;4980488;28;45415;-79
2022/11/03 12:24:59;;;;;;;;;6.00;5.00;;;;;15.70;61.60;99975.78;4951779;28;45576;-79
2022/11/03 12:27:25;;;;;;;;;5.25;5.25;;;;;15.92;61.90;100013.00;4962289;28;48167;-79
2022/11/03 12:29:55;;;;;;;;;5.75;5.00;;;;;15.92;61.89;99993.56;4980111;28;45242;-79
2022/11/03 12:32:23;;;;;;;;;6.50;5.25;;;;;15.83;61.65;99976.22;4980872;28;45327;-80
2022/11/03 12:34:49;;;;;;;;;5.67;4.67;;;;;15.78;62.38;99968.41;4962682;28;45519;-79
2022/11/03 12:37:15;;;;;;;;;5.50;5.00;;;;;15.84;61.98;99975.28;4962400;28;48026;-79
2022/11/03 12:39:40;;;;;;;;;4.67;2.33;;;;;15.76;62.47;99962.28;4975132;28;45525;-79
2022/11/03 12:42:06;;;;;;;;;3.75;3.75;;;;;15.69;62.50;99952.84;4986300;28;45168;-79
2022/11/03 12:44:37;;;;;;;;;2.67;2.33;;;;;15.79;62.65;99961.31;4962565;28;45575;-79
2022/11/03 12:47:02;;;;;;;;;5.33;4.00;;;;;15.71;62.96;99936.84;4980026;28;45503;-79
2022/11/03 12:49:28;;;;;;;;;4.00;4.00;;;;;15.65;63.15;99925.50;4979499;28;45360;-79
2022/11/03 12:51:53;;;;;;;;;3.00;3.00;;;;;15.74;63.24;99936.72;4980071;28;45239;-79
2022/11/03 12:54:20;;;;;;;;;9.33;6.33;;;;;15.62;63.53;99928.28;4979502;28;45289;-79
2022/11/03 12:56:46;;;;;;;;;3.33;3.33;;;;;15.61;63.46;99918.59;4979559;28;45955;-79
2022/11/03 12:59:11;;;;;;;;;3.75;3.75;;;;;15.52;63.63;99934.84;4978286;28;46127;-79
2022/11/03 13:01:36;;;;;;;;;2.00;2.00;;;;;15.59;63.73;99939.00;4979982;28;45874;-79
2022/11/03 13:04:04;;;;;;;;;4.33;3.00;;;;;15.37;64.18;99911.53;4980022;28;45258;-79
2022/11/03 13:06:30;;;;;;;;;3.00;2.67;;;;;15.28;64.50;99918.06;4961622;28;46875;-79
2022/11/03 13:08:58;;;;;;;;;5.67;5.67;;;;;15.21;65.02;99920.06;4961490;28;45708;-79
2022/11/03 13:14:07;;;;;;;;;4.75;4.00;;;;;15.16;65.62;99892.00;4979607;28;45439;-79
2022/11/03 13:16:33;;;;;;;;;4.00;4.00;;;;;15.25;65.83;99915.50;4978116;28;46429;-79
2022/11/03 13:18:58;;;;;;;;;3.00;3.00;;;;;15.18;65.72;99930.78;4961707;28;45852;-79
2022/11/03 13:21:24;;;;;;;;;2.00;2.00;;;;;14.99;66.01;99900.53;4979550;28;45487;-79
2022/11/03 13:23:50;;;;;;;;;3.00;3.00;;;;;14.87;66.36;99890.38;4961363;28;45216;-79
2022/11/03 13:26:18;;;;;;;;;2.75;2.50;;;;;14.87;66.57;99896.53;4961591;28;45921;-79
2022/11/03 13:28:46;;;;;;;;;2.25;1.00;;;;;14.48;66.80;99856.34;4961981;28;45467;-79
2022/11/03 13:31:12;;;;;;;;;2.75;2.75;;;;;14.52;67.44;99888.03;4962059;28;45441;-79
2022/11/03 13:33:40;;;;;;;;;3.50;2.25;;;;;14.30;67.15;99865.78;4962095;28;45433;-79
2022/11/03 13:36:18;;;;;;;;;2.50;2.50;;;;;14.44;68.13;99897.13;4961559;28;46780;-79
2022/11/03 13:38:54;;;;;;;;;2.50;1.50;;;;;14.21;68.46;99866.09;4961547;28;45525;-80